createdAt,value
2019-01-14T00:00:32.883Z,69.10
2019-01-14T00:03:04.338Z,85.25
2019-01-14T00:05:35.559Z,85.45
2019-01-14T00:08:07.036Z,71.47
2019-01-14T00:10:38.162Z,56.98
2019-01-14T00:13:09.621Z,53.92
2019-01-14T00:15:41.066Z,48.90
2019-01-14T00:18:12.398Z,57.53
2019-01-14T00:20:43.734Z,41.98
2019-01-14T00:23:14.790Z,35.90
2019-01-14T00:25:46.226Z,38.02
2019-01-14T00:28:17.414Z,40.25
2019-01-14T00:30:48.629Z,36.70
2019-01-14T00:33:19.711Z,38.85
2019-01-14T00:35:51.044Z,39.40
2019-01-14T00:38:22.355Z,35.63
2019-01-14T00:40:53.703Z,35.75
2019-01-14T00:43:24.770Z,34.03
2019-01-14T00:45:56.114Z,42.70
2019-01-14T00:48:27.549Z,52.58
2019-01-14T00:50:58.873Z,54.42
2019-01-14T00:53:30.376Z,44.60
2019-01-14T00:56:01.743Z,47.10
2019-01-14T00:58:32.966Z,58.08
2019-01-14T01:01:04.484Z,48.90
2019-01-14T01:03:35.891Z,47.55
2019-01-14T01:06:07.417Z,40.92
2019-01-14T01:08:38.978Z,46.95
2019-01-14T01:11:10.539Z,52.20
2019-01-14T01:13:41.624Z,54.20
2019-01-14T01:16:13.298Z,57.35
2019-01-14T01:18:44.579Z,50.45
2019-01-14T01:21:15.881Z,46.55
2019-01-14T01:23:47.233Z,50.17
2019-01-14T01:26:18.689Z,50.88
2019-01-14T01:28:49.749Z,53.15
2019-01-14T01:31:21.191Z,41.02
2019-01-14T01:33:52.850Z,56.37
2019-01-14T01:36:24.215Z,44.98
2019-01-14T01:38:55.586Z,58.42
2019-01-14T01:41:26.968Z,55.12
2019-01-14T01:43:58.192Z,61.28
2019-01-14T01:46:29.575Z,58.30
2019-01-14T01:49:00.911Z,48.65
2019-01-14T01:51:32.468Z,68.83
2019-01-14T01:54:03.786Z,54.83
2019-01-14T01:56:35.057Z,61.13
2019-01-14T01:59:06.459Z,56.33
2019-01-14T02:01:38.055Z,53.55
2019-01-14T02:04:09.365Z,53.70
2019-01-14T02:06:40.793Z,44.18
2019-01-14T02:09:11.882Z,45.70
2019-01-14T02:11:43.212Z,45.67
2019-01-14T02:14:14.342Z,48.45
2019-01-14T02:16:46.203Z,58.42
2019-01-14T02:19:17.460Z,58.00
2019-01-14T02:21:48.900Z,48.90
2019-01-14T02:24:20.251Z,53.15
2019-01-14T02:26:51.548Z,51.08
2019-01-14T02:29:22.932Z,59.08
2019-01-14T02:31:54.009Z,54.98
2019-01-14T02:34:25.176Z,49.20
2019-01-14T02:36:56.383Z,55.35
2019-01-14T02:39:27.753Z,48.45
2019-01-14T02:41:59.052Z,45.03
2019-01-14T02:44:30.284Z,45.80
2019-01-14T02:47:01.720Z,47.62
2019-01-14T02:49:33.047Z,46.80
2019-01-14T02:52:04.404Z,52.95
2019-01-14T02:54:35.823Z,43.00
2019-01-14T02:57:07.348Z,40.30
2019-01-14T02:59:38.816Z,49.15
2019-01-14T03:02:10.282Z,48.28
2019-01-14T03:04:41.608Z,50.75
2019-01-14T03:07:12.904Z,49.77
2019-01-14T03:09:43.979Z,50.70
2019-01-14T03:12:16.164Z,54.13
2019-01-14T03:14:47.280Z,55.78
2019-01-14T03:17:18.609Z,39.25
2019-01-14T03:19:49.765Z,54.20
2019-01-14T03:22:21.094Z,55.38
2019-01-14T03:24:52.152Z,49.58
2019-01-14T03:27:23.688Z,58.75
2019-01-14T03:29:54.800Z,53.63
2019-01-14T03:32:26.024Z,57.00
2019-01-14T03:34:57.279Z,51.95
2019-01-14T03:37:28.569Z,56.25
2019-01-14T03:39:59.816Z,55.10
2019-01-14T03:42:31.256Z,49.03
2019-01-14T03:45:02.356Z,43.68
2019-01-14T03:47:33.522Z,44.03
2019-01-14T03:50:06.245Z,43.70
2019-01-14T03:52:37.366Z,39.25
2019-01-14T03:55:09.016Z,35.08
2019-01-14T03:57:40.521Z,33.65
2019-01-14T04:00:13.446Z,30.15
2019-01-14T04:02:45.041Z,34.43
2019-01-14T04:05:16.273Z,28.60
2019-01-14T04:07:47.738Z,30.95
2019-01-14T04:10:19.282Z,30.27
2019-01-14T04:12:50.540Z,26.87
2019-01-14T04:15:21.893Z,27.93
2019-01-14T04:17:53.304Z,24.25
2019-01-14T04:20:24.566Z,29.57
2019-01-14T04:22:55.898Z,27.77
2019-01-14T04:25:27.209Z,27.77
2019-01-14T04:27:58.458Z,29.42
2019-01-14T04:30:29.730Z,26.77
2019-01-14T04:33:01.242Z,29.00
2019-01-14T04:35:32.625Z,33.95
2019-01-14T04:38:04.013Z,29.10
2019-01-14T04:40:35.409Z,30.30
2019-01-14T04:43:06.879Z,26.37
2019-01-14T04:45:38.211Z,30.15
2019-01-14T04:48:09.802Z,32.23
2019-01-14T04:50:41.111Z,31.87
2019-01-14T04:53:12.573Z,31.33
2019-01-14T04:55:43.804Z,36.20
2019-01-14T04:58:15.243Z,31.42
2019-01-14T05:00:46.555Z,34.67
2019-01-14T05:03:17.656Z,31.77
2019-01-14T05:05:49.052Z,36.88
2019-01-14T05:08:20.585Z,39.20
2019-01-14T05:10:52.042Z,33.70
2019-01-14T05:13:23.506Z,35.88
2019-01-14T05:15:54.576Z,36.95
2019-01-14T05:18:26.001Z,41.50
2019-01-14T05:20:57.486Z,38.88
2019-01-14T05:23:28.923Z,34.33
2019-01-14T05:26:00.260Z,36.38
2019-01-14T05:28:31.826Z,37.13
2019-01-14T05:31:03.400Z,39.03
2019-01-14T05:33:34.707Z,37.53
2019-01-14T05:36:06.111Z,38.98
2019-01-14T05:38:37.588Z,38.13
2019-01-14T05:41:08.950Z,37.75
2019-01-14T05:43:40.185Z,38.45
2019-01-14T05:46:11.534Z,46.80
2019-01-14T05:48:42.904Z,42.08
2019-01-14T05:51:14.071Z,38.67
2019-01-14T05:53:45.732Z,53.10
2019-01-14T05:56:17.234Z,44.67
2019-01-14T05:58:48.414Z,52.30
2019-01-14T06:01:19.788Z,51.33
2019-01-14T06:03:50.874Z,46.18
2019-01-14T06:06:22.076Z,49.42
2019-01-14T06:08:53.467Z,46.15
2019-01-14T06:11:24.687Z,43.95
2019-01-14T06:13:55.858Z,49.40
2019-01-14T06:16:26.952Z,46.10
2019-01-14T06:18:58.044Z,47.85
2019-01-14T06:21:29.141Z,43.68
2019-01-14T06:24:00.535Z,57.15
2019-01-14T06:26:32.035Z,51.75
2019-01-14T06:29:03.268Z,58.78
2019-01-14T06:31:34.513Z,47.30
2019-01-14T06:34:06.190Z,50.73
2019-01-14T06:36:37.596Z,42.62
2019-01-14T06:39:11.086Z,39.03
2019-01-14T06:41:42.530Z,41.90
2019-01-14T06:44:13.858Z,137.12
2019-01-14T06:46:45.215Z,313.77
2019-01-14T06:49:16.602Z,116.82
2019-01-14T06:51:47.968Z,315.37
2019-01-14T06:54:19.373Z,195.15
2019-01-14T06:56:50.481Z,103.80
2019-01-14T06:59:22.809Z,53.85
2019-01-14T07:01:54.179Z,56.53
2019-01-14T07:04:25.444Z,45.92
2019-01-14T07:06:56.516Z,55.17
2019-01-14T07:09:27.617Z,50.20
2019-01-14T07:11:59.100Z,43.80
2019-01-14T07:14:30.495Z,44.20
2019-01-14T07:17:01.552Z,43.78
2019-01-14T07:19:32.929Z,45.88
2019-01-14T07:22:04.395Z,44.48
2019-01-14T07:24:35.840Z,41.63
2019-01-14T07:27:06.931Z,37.20
2019-01-14T07:29:38.248Z,36.83
2019-01-14T07:32:09.682Z,33.53
2019-01-14T07:34:42.074Z,37.20
2019-01-14T07:37:13.143Z,38.70
2019-01-14T07:39:44.306Z,39.15
2019-01-14T07:42:15.544Z,45.20
2019-01-14T07:44:47.067Z,49.73
2019-01-14T07:47:18.105Z,51.28
2019-01-14T07:49:49.700Z,60.30
2019-01-14T07:52:21.009Z,65.87
2019-01-14T07:54:52.479Z,70.10
2019-01-14T07:57:23.748Z,82.53
2019-01-14T07:59:55.379Z,81.65
2019-01-14T08:02:26.874Z,66.40
2019-01-14T08:04:58.017Z,52.80
2019-01-14T08:07:29.068Z,59.08
2019-01-14T08:10:00.226Z,47.83
2019-01-14T08:12:31.487Z,46.23
2019-01-14T08:15:02.828Z,48.10
2019-01-14T08:17:34.338Z,44.13
2019-01-14T08:20:06.713Z,47.20
2019-01-14T08:22:37.941Z,50.95
2019-01-14T08:25:10.644Z,57.80
2019-01-14T08:27:41.825Z,45.48
2019-01-14T08:30:16.031Z,40.83
2019-01-14T08:32:47.579Z,41.53
2019-01-14T08:35:19.089Z,35.40
2019-01-14T08:37:51.046Z,40.10
2019-01-14T08:40:22.395Z,34.33
2019-01-14T08:42:53.683Z,64.20
2019-01-14T08:45:25.120Z,46.95
2019-01-14T08:47:56.446Z,47.73
2019-01-14T08:50:28.088Z,76.05
2019-01-14T08:52:59.351Z,72.55
2019-01-14T08:55:30.849Z,81.65
2019-01-14T08:58:01.920Z,80.22
2019-01-14T09:00:33.327Z,89.42
2019-01-14T09:03:04.926Z,84.67
2019-01-14T09:05:36.247Z,80.05
2019-01-14T09:08:07.630Z,75.35
2019-01-14T09:10:39.064Z,79.00
2019-01-14T09:13:10.446Z,79.60
2019-01-14T09:15:41.825Z,67.00
2019-01-14T09:18:13.216Z,79.10
2019-01-14T09:20:44.611Z,64.82
2019-01-14T09:23:16.038Z,95.25
2019-01-14T09:25:53.639Z,85.03
2019-01-14T09:28:20.491Z,99.22
2019-01-14T09:30:53.174Z,79.45
2019-01-14T09:33:24.651Z,87.78
2019-01-14T09:35:56.307Z,84.40
2019-01-14T09:38:27.793Z,80.90
2019-01-14T09:40:59.358Z,83.80
2019-01-14T09:43:30.839Z,95.20
2019-01-14T09:46:02.234Z,95.32
2019-01-14T09:48:33.693Z,95.22
2019-01-14T09:51:05.210Z,95.10
2019-01-14T09:53:36.706Z,102.25
2019-01-14T09:56:08.095Z,114.05
2019-01-14T09:58:39.165Z,146.18
2019-01-14T10:01:10.529Z,115.62
2019-01-14T10:03:42.138Z,108.52
2019-01-14T10:06:13.582Z,89.45
2019-01-14T10:08:45.205Z,122.55
2019-01-14T10:11:16.668Z,103.27
2019-01-14T10:13:47.960Z,108.15
2019-01-14T10:16:19.603Z,85.50
2019-01-14T10:18:50.976Z,80.97
2019-01-14T10:21:22.379Z,55.12
2019-01-14T10:23:53.698Z,76.02
2019-01-14T10:26:26.245Z,54.18
2019-01-14T10:28:57.939Z,15.85
2019-01-14T10:31:29.522Z,7.22
2019-01-14T10:34:00.954Z,12.15
2019-01-14T10:36:32.194Z,7.53
2019-01-14T10:39:05.329Z,4.47
2019-01-14T10:41:36.987Z,4.40
2019-01-14T10:44:08.360Z,4.87
2019-01-14T10:46:39.869Z,4.45
2019-01-14T10:49:11.260Z,5.37
2019-01-14T10:51:42.720Z,4.42
2019-01-14T10:54:14.008Z,5.67
2019-01-14T10:56:45.571Z,6.78
2019-01-14T10:59:16.785Z,5.85
2019-01-14T11:01:48.398Z,7.00
2019-01-14T11:04:19.571Z,8.13
2019-01-14T11:06:51.204Z,6.20
2019-01-14T11:09:22.522Z,6.78
2019-01-14T11:11:54.138Z,9.33
2019-01-14T11:14:25.741Z,3.42
2019-01-14T11:16:57.180Z,60.90
2019-01-14T11:19:28.592Z,70.25
2019-01-14T11:21:59.832Z,73.07
2019-01-14T11:24:49.812Z,72.05
2019-01-14T11:27:21.831Z,71.33
2019-01-14T11:29:53.871Z,70.57
2019-01-14T11:32:25.401Z,66.97
2019-01-14T11:34:56.641Z,75.55
2019-01-14T11:37:27.885Z,72.58
2019-01-14T11:39:58.999Z,76.92
2019-01-14T11:42:30.142Z,72.40
2019-01-14T11:45:01.264Z,72.17
2019-01-14T11:47:32.751Z,59.42
2019-01-14T11:50:05.358Z,44.40
2019-01-14T11:52:36.516Z,34.98
2019-01-14T11:55:08.247Z,30.12
2019-01-14T11:57:39.520Z,34.98
2019-01-14T12:00:23.199Z,51.20
2019-01-14T12:02:54.676Z,51.75
2019-01-14T12:05:26.137Z,66.17
2019-01-14T12:07:57.464Z,67.53
2019-01-14T12:10:28.833Z,73.45
2019-01-14T12:13:00.438Z,64.82
2019-01-14T12:15:31.930Z,66.87
2019-01-14T12:18:03.424Z,67.67
2019-01-14T12:20:34.627Z,66.70
2019-01-14T12:23:06.655Z,68.97
2019-01-14T12:25:38.164Z,65.47
2019-01-14T12:28:09.655Z,68.28
2019-01-14T12:30:42.700Z,68.12
2019-01-14T12:33:14.082Z,72.60
2019-01-14T12:35:45.405Z,67.42
2019-01-14T12:38:16.695Z,42.80
2019-01-14T12:40:48.043Z,41.48
2019-01-14T12:43:20.228Z,65.15
2019-01-14T12:45:52.328Z,57.08
2019-01-14T12:48:24.035Z,56.77
2019-01-14T12:50:55.536Z,36.15
2019-01-14T12:53:26.947Z,37.23
2019-01-14T12:55:58.307Z,20.40
2019-01-14T12:58:29.760Z,23.35
2019-01-14T13:01:00.972Z,48.17
2019-01-14T13:03:32.417Z,41.70
2019-01-14T13:06:03.952Z,28.27
2019-01-14T13:08:35.432Z,55.23
2019-01-14T13:11:07.052Z,36.42
2019-01-14T13:13:38.267Z,40.63
2019-01-14T13:16:09.484Z,27.98
2019-01-14T13:18:40.639Z,28.02
2019-01-14T13:21:11.908Z,26.97
2019-01-14T13:23:43.305Z,26.27
2019-01-14T13:26:14.606Z,44.20
2019-01-14T13:28:45.770Z,35.73
2019-01-14T13:31:17.146Z,32.20
2019-01-14T13:33:48.457Z,31.62
2019-01-14T13:36:19.792Z,35.17
2019-01-14T13:38:50.955Z,34.63
2019-01-14T13:41:22.389Z,27.87
2019-01-14T13:43:53.683Z,29.42
2019-01-14T13:46:26.359Z,26.85
2019-01-14T13:48:57.881Z,30.25
2019-01-14T13:51:30.290Z,20.82
2019-01-14T13:54:01.921Z,17.75
2019-01-14T14:04:50.578Z,16.55
2019-01-14T14:07:22.082Z,17.57
2019-01-14T14:09:53.666Z,17.57
2019-01-14T14:12:25.306Z,16.67
2019-01-14T14:14:56.543Z,18.35
2019-01-14T14:17:27.947Z,19.02
2019-01-14T14:19:59.296Z,19.27
2019-01-14T14:22:30.441Z,19.60
2019-01-14T14:25:01.739Z,16.27
2019-01-14T14:27:33.147Z,17.05
2019-01-14T14:30:07.451Z,19.25
2019-01-14T14:32:38.712Z,18.07
2019-01-14T14:35:10.051Z,18.23
2019-01-14T14:37:41.608Z,21.65
2019-01-14T14:40:13.288Z,23.52
2019-01-14T14:42:44.744Z,21.82
2019-01-14T14:45:16.371Z,22.17
2019-01-14T14:47:47.919Z,20.77
2019-01-14T14:50:19.394Z,19.45
2019-01-14T14:52:50.952Z,21.02
2019-01-14T14:55:23.249Z,21.45
2019-01-14T14:57:54.975Z,18.60
2019-01-14T15:00:26.485Z,15.15
2019-01-14T15:02:57.963Z,22.52
2019-01-14T15:05:29.301Z,18.92
2019-01-14T15:08:00.582Z,19.77
2019-01-14T15:10:32.013Z,23.40
2019-01-14T15:13:03.265Z,19.95
2019-01-14T15:15:34.595Z,18.60
2019-01-14T15:18:06.466Z,21.82
2019-01-14T15:20:37.941Z,20.70
2019-01-14T15:23:09.108Z,17.67
2019-01-14T15:25:40.538Z,14.43
2019-01-14T15:28:11.644Z,14.05
2019-01-14T15:30:43.083Z,15.32
2019-01-14T15:33:14.473Z,17.77
2019-01-14T15:35:45.600Z,20.02
2019-01-14T15:38:16.914Z,17.87
2019-01-14T15:40:48.391Z,16.30
2019-01-14T15:43:19.508Z,16.87
2019-01-14T15:45:50.685Z,16.70
2019-01-14T15:48:21.912Z,16.82
2019-01-14T15:50:53.239Z,15.48
2019-01-14T15:53:24.371Z,18.37
2019-01-14T15:55:55.787Z,18.92
2019-01-14T15:58:27.279Z,17.73
2019-01-14T16:00:58.856Z,17.42
2019-01-14T16:03:30.297Z,18.67
2019-01-14T16:06:01.629Z,16.48
2019-01-14T16:08:32.687Z,17.67
2019-01-14T16:11:04.096Z,18.02
2019-01-14T16:13:35.447Z,18.92
2019-01-14T16:16:06.706Z,17.87
2019-01-14T16:18:38.087Z,19.12
2019-01-14T16:21:09.461Z,22.52
2019-01-14T16:23:40.663Z,22.07
2019-01-14T16:26:11.846Z,22.95
2019-01-14T16:28:42.918Z,21.93
2019-01-14T16:31:14.367Z,22.13
2019-01-14T16:33:45.557Z,32.23
2019-01-14T16:36:16.658Z,36.93
2019-01-14T16:38:47.950Z,53.10
2019-01-14T16:41:19.382Z,43.25
2019-01-14T16:43:50.585Z,35.35
2019-01-14T16:46:21.922Z,36.85
2019-01-14T16:48:53.345Z,36.75
2019-01-14T16:51:24.839Z,38.42
2019-01-14T16:53:57.191Z,38.63
2019-01-14T16:56:28.554Z,37.28
2019-01-14T16:58:59.799Z,38.60
2019-01-14T17:01:30.976Z,31.62
2019-01-14T17:04:02.272Z,35.33
2019-01-14T17:06:33.741Z,31.70
2019-01-14T17:09:08.397Z,33.83
2019-01-14T17:11:39.760Z,36.88
2019-01-14T17:14:11.206Z,35.75
2019-01-14T17:16:42.586Z,31.68
2019-01-14T17:19:13.863Z,32.15
2019-01-14T17:21:45.522Z,36.00
2019-01-14T17:24:17.012Z,35.60
2019-01-14T17:26:48.322Z,56.37
2019-01-14T17:29:19.642Z,59.73
2019-01-14T17:31:50.958Z,67.45
2019-01-14T17:34:22.220Z,69.22
2019-01-14T17:36:53.719Z,70.05
2019-01-14T17:39:25.014Z,73.30
2019-01-14T17:41:56.773Z,80.60
2019-01-14T17:44:27.961Z,80.10
2019-01-14T17:46:59.330Z,79.37
2019-01-14T17:49:30.660Z,81.28
2019-01-14T17:52:02.100Z,85.83
2019-01-14T17:54:33.206Z,80.50
2019-01-14T17:57:04.512Z,75.90
2019-01-14T17:59:35.869Z,88.58
2019-01-14T18:02:07.199Z,88.15
2019-01-14T18:04:38.515Z,83.47
2019-01-14T18:07:09.801Z,82.88
2019-01-14T18:09:40.945Z,77.12
2019-01-14T18:12:12.340Z,71.53
2019-01-14T18:14:43.745Z,66.70
2019-01-14T18:17:14.975Z,60.78
2019-01-14T18:19:46.263Z,63.75
2019-01-14T18:22:17.564Z,63.23
2019-01-14T18:24:49.002Z,66.60
2019-01-14T18:27:20.422Z,61.48
2019-01-14T18:29:51.963Z,61.13
2019-01-14T18:32:23.482Z,73.92
2019-01-14T18:34:54.956Z,61.63
2019-01-14T18:37:26.553Z,65.42
2019-01-14T18:39:58.755Z,62.08
2019-01-14T18:42:30.063Z,63.10
2019-01-14T18:45:01.119Z,61.90
2019-01-14T18:47:32.494Z,57.48
2019-01-14T18:50:03.821Z,64.80
2019-01-14T18:52:34.938Z,66.33
2019-01-14T18:55:06.703Z,67.53
2019-01-14T18:57:38.000Z,64.15
2019-01-14T19:00:12.994Z,62.73
2019-01-14T19:02:44.771Z,47.95
2019-01-14T19:05:16.384Z,42.03
2019-01-14T19:07:47.980Z,27.58
2019-01-14T19:10:19.275Z,25.52
2019-01-14T19:12:50.885Z,24.00
2019-01-14T19:15:22.925Z,84.25
2019-01-14T19:17:54.834Z,122.30
2019-01-14T19:20:27.968Z,82.02
2019-01-14T19:22:59.090Z,71.90
2019-01-14T19:25:30.704Z,63.52
2019-01-14T19:28:02.269Z,36.83
2019-01-14T19:30:33.552Z,23.70
2019-01-14T19:33:05.037Z,19.40
2019-01-14T19:35:36.291Z,15.03
2019-01-14T19:38:07.971Z,13.38
2019-01-14T19:40:39.180Z,12.70
2019-01-14T19:43:10.750Z,14.65
2019-01-14T19:45:49.536Z,15.95
2019-01-14T19:48:15.290Z,23.02
2019-01-14T19:50:46.705Z,13.90
2019-01-14T19:53:18.044Z,13.70
2019-01-14T19:55:49.329Z,14.33
2019-01-14T19:58:20.990Z,14.25
2019-01-14T20:00:52.154Z,11.08
2019-01-14T20:03:23.577Z,11.03
2019-01-14T20:05:55.125Z,11.53
2019-01-14T20:08:26.532Z,10.65
2019-01-14T20:10:57.738Z,12.30
2019-01-14T20:13:29.209Z,10.58
2019-01-14T20:16:00.511Z,10.48
2019-01-14T20:18:32.018Z,10.48
2019-01-14T20:21:03.225Z,12.20
2019-01-14T20:23:34.490Z,15.55
2019-01-14T20:26:05.783Z,9.60
2019-01-14T20:28:36.941Z,11.60
2019-01-14T20:31:08.016Z,13.95
2019-01-14T20:33:39.198Z,14.10
2019-01-14T20:36:10.274Z,20.35
2019-01-14T20:38:41.528Z,16.15
2019-01-14T20:41:16.414Z,13.18
2019-01-14T20:43:45.721Z,14.35
2019-01-14T20:46:16.967Z,13.38
2019-01-14T20:48:48.265Z,12.68
2019-01-14T20:51:19.410Z,13.40
2019-01-14T20:53:50.790Z,15.53
2019-01-14T20:56:22.150Z,12.30
2019-01-14T20:58:53.428Z,10.43
2019-01-14T21:01:24.745Z,8.50
2019-01-14T21:03:56.348Z,9.93
2019-01-14T21:06:27.752Z,12.18
2019-01-14T21:08:59.007Z,11.10
2019-01-14T21:11:34.026Z,10.78
2019-01-14T21:14:05.518Z,9.20
2019-01-14T21:16:42.645Z,10.63
2019-01-14T21:20:04.675Z,10.48
2019-01-14T21:23:13.794Z,10.65
2019-01-14T21:25:50.335Z,10.45
2019-01-14T21:28:41.049Z,9.65
2019-01-14T21:31:31.876Z,7.67
2019-01-14T21:34:22.211Z,10.05
2019-01-14T21:37:16.636Z,9.33
2019-01-14T21:40:09.297Z,8.45
2019-01-14T21:43:00.096Z,11.00
2019-01-14T21:45:32.295Z,8.23
2019-01-14T21:48:01.535Z,7.65
2019-01-14T21:50:32.952Z,7.20
2019-01-14T21:53:04.553Z,8.63
2019-01-14T21:55:35.990Z,9.63
2019-01-14T21:58:07.280Z,9.33
2019-01-14T22:00:38.813Z,9.60
2019-01-14T22:03:10.138Z,9.38
2019-01-14T22:05:41.376Z,8.25
2019-01-14T22:08:12.762Z,9.08
2019-01-14T22:10:43.844Z,25.00
2019-01-14T22:13:14.909Z,19.40
2019-01-14T22:16:34.629Z,14.43
2019-01-14T22:19:57.169Z,11.53
2019-01-14T22:23:17.361Z,10.93
2019-01-14T22:26:16.412Z,8.80
2019-01-14T22:29:15.001Z,10.32
2019-01-14T22:32:07.954Z,6.58
2019-01-14T22:34:41.366Z,7.53
2019-01-14T22:37:12.745Z,8.35
2019-01-14T22:39:43.854Z,7.05
2019-01-14T22:42:14.937Z,7.20
2019-01-14T22:44:46.259Z,8.90
2019-01-14T22:47:17.378Z,8.35
2019-01-14T22:49:48.461Z,6.85
2019-01-14T22:52:19.861Z,7.87
2019-01-14T22:54:51.079Z,10.48
2019-01-14T22:57:22.454Z,11.78
2019-01-14T22:59:53.708Z,8.50
2019-01-14T23:02:24.970Z,6.25
2019-01-14T23:04:56.401Z,6.95
2019-01-14T23:07:27.479Z,6.58
2019-01-14T23:09:58.736Z,9.08
2019-01-14T23:12:29.797Z,11.15
2019-01-14T23:15:00.834Z,8.43
2019-01-14T23:17:33.549Z,6.62
2019-01-14T23:20:05.733Z,6.92
2019-01-14T23:22:38.134Z,5.20
2019-01-14T23:25:09.578Z,7.17
2019-01-14T23:27:40.866Z,5.85
2019-01-14T23:30:12.325Z,6.35
2019-01-14T23:32:44.022Z,5.75
2019-01-14T23:35:15.269Z,5.55
2019-01-14T23:37:46.437Z,8.90
2019-01-14T23:40:17.940Z,7.17
2019-01-14T23:42:49.137Z,7.40
2019-01-14T23:45:20.513Z,6.45
2019-01-14T23:47:52.038Z,6.10
2019-01-14T23:50:23.344Z,5.03
2019-01-14T23:52:54.834Z,6.00
2019-01-14T23:55:26.228Z,7.75
2019-01-14T23:57:57.696Z,5.78
